Time;durP1;ratioP1;P1;durP2;ratioP2;P2;SDS_P1;SDS_P2;PMS_P1;PMS_P2;Temp;Humidity;BMP_temperature;BMP_pressure;BME280_temperature;BME280_humidity;BME280_pressure;Samples;Min_cycle;Max_cycle;Signal;HPM_P1;HPM_P2
2023/08/27 04:03:02;;;;;;;;;;;13.50;99.90;;;;;;4914766;29;20384;-79
2023/08/27 04:05:28;;;;;;;;;;;13.60;99.90;;;;;;4916377;29;19970;-79
2023/08/27 04:07:54;;;;;;;;;;;13.60;99.90;;;;;;4916317;29;19923;-79
2023/08/27 04:10:19;;;;;;;;;;;13.50;99.90;;;;;;4949152;29;19923;-80
2023/08/27 04:12:45;;;;;;;;;;;13.50;99.90;;;;;;4935123;29;19938;-79
2023/08/27 04:15:10;;;;;;;;;;;13.50;99.90;;;;;;4935225;29;19922;-77
2023/08/27 04:17:36;;;;;;;;;;;13.50;99.90;;;;;;4936608;29;19926;-77
2023/08/27 04:20:02;;;;;;;;;;;13.50;99.90;;;;;;4936638;29;19969;-80
2023/08/27 04:22:27;;;;;;;;;;;13.50;99.90;;;;;;4935125;29;20010;-78
2023/08/27 04:24:54;;;;;;;;;;;13.50;99.90;;;;;;4935154;29;19922;-78
2023/08/27 04:27:19;;;;;;;;;;;13.40;99.90;;;;;;4935453;29;19923;-77
2023/08/27 04:29:45;;;;;;;;;;;13.50;99.90;;;;;;4935645;29;20297;-78
2023/08/27 04:32:10;;;;;;;;;;;13.50;99.90;;;;;;4935321;29;19923;-79
2023/08/27 04:34:36;;;;;;;;;;;13.50;99.90;;;;;;4934974;29;19942;-80
2023/08/27 04:37:03;;;;;;;;;;;13.40;99.90;;;;;;4935875;29;20371;-77
2023/08/27 04:39:29;;;;;;;;;;;13.40;99.90;;;;;;4939133;29;19945;-79
2023/08/27 04:41:55;;;;;;;;;;;13.40;99.90;;;;;;4938833;29;19923;-77
2023/08/27 04:44:20;;;;;;;;;;;13.40;99.90;;;;;;4939242;29;19923;-78
2023/08/27 04:46:46;;;;;;;;;;;13.40;99.90;;;;;;4940475;29;19927;-79
2023/08/27 04:49:13;;;;;;;;;;;13.40;99.90;;;;;;4939129;29;20286;-78
2023/08/27 04:51:38;;;;;;;;;;;13.40;99.90;;;;;;4938680;29;19922;-80
2023/08/27 04:54:04;;;;;;;;;;;13.40;99.90;;;;;;4940250;29;19927;-78
2023/08/27 04:56:29;;;;;;;;;;;13.50;99.90;;;;;;4940237;29;20336;-79
2023/08/27 04:58:55;;;;;;;;;;;13.50;99.90;;;;;;4938975;29;19923;-77
2023/08/27 05:01:21;;;;;;;;;;;13.50;99.90;;;;;;4938735;29;20368;-79
2023/08/27 05:03:46;;;;;;;;;;;13.50;99.90;;;;;;4938480;29;20388;-78
2023/08/27 05:06:14;;;;;;;;;;;13.60;99.90;;;;;;4939125;29;21330;-81
2023/08/27 05:08:42;;;;;;;;;;;13.60;99.90;;;;;;4938566;29;19966;-77
2023/08/27 05:11:07;;;;;;;;;;;13.60;99.90;;;;;;4938429;29;19930;-79
2023/08/27 05:13:33;;;;;;;;;;;13.60;99.90;;;;;;4939994;29;19930;-80
2023/08/27 05:15:59;;;;;;;;;;;13.60;99.90;;;;;;4938810;29;20328;-79
2023/08/27 05:18:24;;;;;;;;;;;13.60;99.90;;;;;;4939938;29;19923;-82
2023/08/27 05:20:50;;;;;;;;;;;13.70;99.90;;;;;;4938246;29;20468;-78
2023/08/27 05:23:17;;;;;;;;;;;13.70;99.90;;;;;;4938326;29;19933;-78
2023/08/27 05:25:44;;;;;;;;;;;13.70;99.90;;;;;;4938294;29;19923;-78
2023/08/27 05:28:09;;;;;;;;;;;13.70;99.90;;;;;;4938414;29;19922;-78
2023/08/27 05:30:35;;;;;;;;;;;13.80;99.90;;;;;;4938014;29;20292;-77
2023/08/27 05:33:00;;;;;;;;;;;13.80;99.90;;;;;;4938002;29;19982;-77
2023/08/27 05:35:26;;;;;;;;;;;13.80;99.90;;;;;;4938004;29;19977;-77
2023/08/27 05:37:51;;;;;;;;;;;13.90;99.90;;;;;;4938866;29;19930;-77
2023/08/27 05:40:17;;;;;;;;;;;13.90;99.90;;;;;;4937897;29;20392;-78
2023/08/27 05:42:43;;;;;;;;;;;13.90;99.90;;;;;;4938177;29;20014;-78
2023/08/27 05:45:09;;;;;;;;;;;13.90;99.90;;;;;;4938224;29;19922;-78
2023/08/27 05:47:34;;;;;;;;;;;14.00;99.90;;;;;;4937958;29;19938;-78
2023/08/27 05:50:00;;;;;;;;;;;13.90;99.90;;;;;;4937809;29;19931;-78
2023/08/27 05:52:26;;;;;;;;;;;14.00;99.90;;;;;;4937778;29;19926;-79
2023/08/27 05:54:51;;;;;;;;;;;14.00;99.90;;;;;;4937616;29;20308;-79
2023/08/27 05:57:17;;;;;;;;;;;14.00;99.90;;;;;;4937610;29;19930;-78
2023/08/27 05:59:42;;;;;;;;;;;14.10;99.90;;;;;;4937665;29;19971;-78
2023/08/27 06:02:10;;;;;;;;;;;14.10;99.90;;;;;;4937716;29;19974;-77
2023/08/27 06:04:35;;;;;;;;;;;14.10;99.90;;;;;;4937519;29;19946;-79
2023/08/27 06:07:01;;;;;;;;;;;14.10;99.90;;;;;;4937653;29;19922;-77
2023/08/27 06:09:35;;;;;;;;;;;14.10;99.90;;;;;;4940838;29;19923;-79
2023/08/27 06:12:02;;;;;;;;;;;14.10;99.90;;;;;;4937076;29;19929;-79
2023/08/27 06:14:27;;;;;;;;;;;14.10;99.90;;;;;;4935623;29;19934;-77
2023/08/27 06:16:53;;;;;;;;;;;14.10;99.90;;;;;;4935976;29;19922;-79
2023/08/27 06:19:19;;;;;;;;;;;14.10;99.90;;;;;;4935688;29;19978;-78
2023/08/27 06:21:44;;;;;;;;;;;14.20;99.90;;;;;;4935680;29;19926;-79
2023/08/27 06:24:10;;;;;;;;;;;14.20;99.90;;;;;;4935571;29;20013;-80
2023/08/27 06:26:35;;;;;;;;;;;14.20;99.90;;;;;;4935375;29;19982;-78
2023/08/27 06:29:01;;;;;;;;;;;14.20;99.90;;;;;;4935794;29;19986;-78
2023/08/27 06:31:26;;;;;;;;;;;14.20;99.90;;;;;;4937104;29;20404;-76
2023/08/27 06:33:54;;;;;;;;;;;14.20;99.90;;;;;;4938354;29;20377;-77
2023/08/27 06:36:19;;;;;;;;;;;14.20;99.90;;;;;;4936968;29;20280;-78
2023/08/27 06:38:45;;;;;;;;;;;14.30;99.90;;;;;;4938073;29;20005;-75
2023/08/27 06:41:10;;;;;;;;;;;14.30;99.90;;;;;;4937108;29;19922;-80
2023/08/27 06:43:36;;;;;;;;;;;14.30;99.90;;;;;;4936972;29;19927;-78
2023/08/27 06:46:02;;;;;;;;;;;14.30;99.90;;;;;;4936991;29;19930;-76
2023/08/27 06:48:27;;;;;;;;;;;14.20;99.90;;;;;;4936896;29;19923;-81
2023/08/27 06:50:53;;;;;;;;;;;14.20;99.90;;;;;;4936683;29;19977;-78
2023/08/27 06:53:20;;;;;;;;;;;14.20;99.90;;;;;;4936794;29;19927;-78
2023/08/27 06:55:46;;;;;;;;;;;14.20;99.90;;;;;;4936730;29;19922;-78
2023/08/27 06:58:11;;;;;;;;;;;14.20;99.90;;;;;;4937009;29;19923;-77
2023/08/27 07:00:39;;;;;;;;;;;14.30;99.90;;;;;;4935878;29;19931;-77
2023/08/27 07:03:06;;;;;;;;;;;14.30;99.90;;;;;;4936689;29;20017;-79
2023/08/27 07:05:33;;;;;;;;;;;14.30;99.90;;;;;;4936615;29;19930;-78
2023/08/27 07:07:59;;;;;;;;;;;14.20;99.90;;;;;;4937981;29;19927;-78
2023/08/27 07:10:25;;;;;;;;;;;14.20;99.90;;;;;;4936429;29;20372;-76
2023/08/27 07:12:50;;;;;;;;;;;14.30;99.90;;;;;;4936359;29;19927;-80
2023/08/27 07:15:16;;;;;;;;;;;14.30;99.90;;;;;;4936315;29;19944;-81
2023/08/27 07:17:41;;;;;;;;;;;14.30;99.90;;;;;;4936767;29;19929;-77
2023/08/27 07:20:07;;;;;;;;;;;14.30;99.90;;;;;;4936721;29;20392;-79
2023/08/27 07:22:33;;;;;;;;;;;14.20;99.90;;;;;;4936150;29;19946;-80
2023/08/27 07:24:59;;;;;;;;;;;14.30;99.90;;;;;;4936205;29;19927;-78
2023/08/27 07:27:25;;;;;;;;;;;14.30;99.90;;;;;;4936134;29;19974;-77
2023/08/27 07:29:51;;;;;;;;;;;14.40;99.90;;;;;;4936058;29;19922;-80
2023/08/27 07:32:16;;;;;;;;;;;14.40;99.90;;;;;;4936023;29;19927;-80
2023/08/27 07:34:42;;;;;;;;;;;14.50;99.90;;;;;;4935969;29;19927;-77
2023/08/27 07:37:07;;;;;;;;;;;14.50;99.90;;;;;;4936682;29;19930;-78
2023/08/27 07:39:33;;;;;;;;;;;14.50;99.90;;;;;;4937551;29;20258;-78
2023/08/27 07:41:59;;;;;;;;;;;14.60;99.90;;;;;;4935867;29;19942;-78
2023/08/27 07:44:25;;;;;;;;;;;14.70;99.90;;;;;;4936841;29;19938;-78
2023/08/27 07:46:51;;;;;;;;;;;14.70;99.90;;;;;;4936406;29;19926;-77
2023/08/27 07:49:16;;;;;;;;;;;14.80;99.90;;;;;;4935821;29;20372;-77
2023/08/27 07:51:42;;;;;;;;;;;14.80;99.90;;;;;;4935700;29;20290;-79
2023/08/27 07:54:07;;;;;;;;;;;14.90;99.90;;;;;;4937006;29;19927;-77
2023/08/27 07:56:33;;;;;;;;;;;15.00;99.90;;;;;;4935739;29;19933;-78
2023/08/27 07:58:58;;;;;;;;;;;15.00;99.90;;;;;;4937184;29;19934;-80
2023/08/27 08:01:24;;;;;;;;;;;15.10;99.90;;;;;;4935357;29;19922;-78
2023/08/27 08:03:49;;;;;;;;;;;15.20;99.90;;;;;;4935578;29;19927;-77
2023/08/27 08:06:15;;;;;;;;;;;15.20;99.90;;;;;;4935678;29;20025;-79
2023/08/27 08:08:40;;;;;;;;;;;15.30;99.90;;;;;;4935518;29;20030;-78
2023/08/27 08:11:06;;;;;;;;;;;15.30;99.90;;;;;;4935264;29;19927;-77
2023/08/27 08:13:36;;;;;;;;;;;15.40;99.90;;;;;;4935386;29;19927;-79
2023/08/27 08:16:02;;;;;;;;;;;15.50;99.90;;;;;;4935703;29;20280;-78
2023/08/27 08:18:28;;;;;;;;;;;15.50;99.90;;;;;;4935624;29;19930;-81
2023/08/27 08:20:54;;;;;;;;;;;15.60;99.90;;;;;;4935429;29;19923;-79
2023/08/27 08:23:19;;;;;;;;;;;15.60;99.90;;;;;;4935868;29;19930;-80
2023/08/27 08:25:49;;;;;;;;;;;15.70;99.90;;;;;;4935214;29;19923;-79
2023/08/27 08:28:15;;;;;;;;;;;15.80;99.90;;;;;;4935647;29;19985;-79
2023/08/27 08:30:45;;;;;;;;;;;15.80;99.90;;;;;;4935169;29;19923;-76
2023/08/27 08:33:11;;;;;;;;;;;15.80;99.90;;;;;;4935214;29;19934;-78
2023/08/27 08:35:37;;;;;;;;;;;15.90;99.90;;;;;;4935103;29;19927;-78
2023/08/27 08:38:03;;;;;;;;;;;15.90;99.90;;;;;;4935199;29;19966;-76
2023/08/27 08:40:29;;;;;;;;;;;16.00;99.90;;;;;;4934978;29;20029;-79
2023/08/27 08:42:57;;;;;;;;;;;16.00;99.90;;;;;;4935069;29;19922;-79
2023/08/27 08:45:25;;;;;;;;;;;16.10;99.90;;;;;;4935291;29;19927;-78
2023/08/27 08:47:52;;;;;;;;;;;16.20;99.90;;;;;;4935418;29;20006;-76
2023/08/27 08:50:18;;;;;;;;;;;16.20;99.90;;;;;;4935399;29;19923;-77
2023/08/27 08:52:45;;;;;;;;;;;16.40;99.90;;;;;;4934844;29;19923;-77
2023/08/27 08:55:10;;;;;;;;;;;16.40;99.90;;;;;;4935164;29;20057;-80
2023/08/27 08:57:38;;;;;;;;;;;16.60;99.90;;;;;;4935276;29;20021;-80
2023/08/27 09:00:04;;;;;;;;;;;16.60;99.90;;;;;;4936133;29;19975;-79
2023/08/27 09:02:30;;;;;;;;;;;16.70;99.90;;;;;;4934872;29;19923;-79
2023/08/27 09:04:57;;;;;;;;;;;16.80;99.90;;;;;;4935048;29;20025;-78
2023/08/27 09:07:23;;;;;;;;;;;16.90;99.90;;;;;;4936265;29;19990;-78
2023/08/27 09:09:51;;;;;;;;;;;17.00;99.90;;;;;;4934863;29;19930;-80
2023/08/27 09:12:17;;;;;;;;;;;17.10;99.90;;;;;;4934814;29;19927;-77
2023/08/27 09:14:43;;;;;;;;;;;17.20;99.90;;;;;;4936036;29;20325;-79
2023/08/27 09:17:12;;;;;;;;;;;17.20;99.90;;;;;;4936231;29;19923;-78
2023/08/27 09:19:37;;;;;;;;;;;17.20;99.90;;;;;;4935108;29;20304;-79
2023/08/27 09:22:03;;;;;;;;;;;17.20;99.90;;;;;;4934953;29;19930;-80
2023/08/27 09:24:29;;;;;;;;;;;17.40;99.90;;;;;;4937641;29;19923;-80
2023/08/27 09:26:54;;;;;;;;;;;17.50;99.90;;;;;;4938322;29;19993;-78
2023/08/27 09:29:21;;;;;;;;;;;17.60;99.90;;;;;;4938190;29;19923;-79
2023/08/27 09:31:47;;;;;;;;;;;17.80;99.90;;;;;;4938259;29;19922;-81
2023/08/27 09:34:13;;;;;;;;;;;17.80;99.90;;;;;;4938332;29;19927;-78
2023/08/27 09:36:38;;;;;;;;;;;17.70;99.90;;;;;;4938394;29;20277;-80
2023/08/27 09:39:09;;;;;;;;;;;17.60;99.90;;;;;;4938364;29;20026;-78
2023/08/27 09:41:39;;;;;;;;;;;17.60;99.90;;;;;;4938041;29;19923;-80
2023/08/27 09:44:05;;;;;;;;;;;17.70;99.90;;;;;;4938463;29;20285;-77
2023/08/27 09:46:31;;;;;;;;;;;17.80;99.90;;;;;;4938299;29;19923;-79
2023/08/27 09:49:00;;;;;;;;;;;18.00;99.90;;;;;;4939777;29;19926;-81
2023/08/27 09:51:27;;;;;;;;;;;18.10;99.90;;;;;;4939397;29;20368;-77
2023/08/27 09:53:52;;;;;;;;;;;18.10;99.90;;;;;;4937847;29;20407;-78
2023/08/27 09:56:21;;;;;;;;;;;18.10;99.90;;;;;;4938145;29;19923;-79
2023/08/27 09:58:46;;;;;;;;;;;18.20;99.90;;;;;;4937860;29;19927;-78
2023/08/27 10:01:12;;;;;;;;;;;18.20;99.90;;;;;;4954116;29;19946;-79
2023/08/27 10:03:37;;;;;;;;;;;18.20;99.90;;;;;;4939512;29;20357;-79
2023/08/27 10:06:03;;;;;;;;;;;18.40;99.90;;;;;;4939004;29;20398;-78
2023/08/27 10:08:28;;;;;;;;;;;18.60;99.90;;;;;;4938040;29;20436;-78
2023/08/27 10:11:08;;;;;;;;;;;18.50;99.90;;;;;;4937997;29;20317;-75
2023/08/27 10:13:34;;;;;;;;;;;18.50;99.90;;;;;;4937499;29;19931;-81
2023/08/27 10:16:00;;;;;;;;;;;18.50;99.90;;;;;;4937579;29;19930;-77
2023/08/27 10:18:27;;;;;;;;;;;18.50;99.90;;;;;;4937360;29;20400;-80
2023/08/27 10:20:53;;;;;;;;;;;18.40;99.90;;;;;;4937468;29;19973;-79
2023/08/27 10:23:19;;;;;;;;;;;18.40;99.90;;;;;;4937500;29;20053;-76
2023/08/27 10:25:46;;;;;;;;;;;18.40;99.90;;;;;;4939690;29;19923;-79
2023/08/27 10:28:12;;;;;;;;;;;18.30;99.90;;;;;;4937181;29;19923;-77
2023/08/27 10:30:38;;;;;;;;;;;18.20;99.90;;;;;;4937012;29;19923;-79
2023/08/27 10:33:03;;;;;;;;;;;18.20;99.90;;;;;;4936982;29;19950;-79
2023/08/27 10:35:32;;;;;;;;;;;18.10;99.90;;;;;;4936991;29;20293;-79
2023/08/27 10:37:58;;;;;;;;;;;18.00;99.90;;;;;;4937160;29;20289;-77
2023/08/27 10:40:25;;;;;;;;;;;18.00;99.90;;;;;;4936767;29;19929;-79
2023/08/27 10:42:50;;;;;;;;;;;18.10;99.90;;;;;;4936835;29;19926;-77
2023/08/27 10:45:20;;;;;;;;;;;18.20;99.90;;;;;;4938303;29;19927;-79
2023/08/27 10:48:03;;;;;;;;;;;18.30;99.90;;;;;;4936776;29;19977;-78
2023/08/27 10:50:41;;;;;;;;;;;18.40;99.90;;;;;;4936670;29;19965;-79
2023/08/27 10:53:07;;;;;;;;;;;18.50;99.90;;;;;;4936874;29;20312;-80
2023/08/27 10:55:34;;;;;;;;;;;18.60;99.90;;;;;;4936540;29;19923;-79
2023/08/27 10:58:16;;;;;;;;;;;18.50;99.90;;;;;;4938084;29;19969;-78
2023/08/27 11:00:57;;;;;;;;;;;18.40;99.90;;;;;;4937727;29;19922;-77
2023/08/27 11:03:23;;;;;;;;;;;18.40;99.90;;;;;;4938093;29;19922;-80
2023/08/27 11:06:07;;;;;;;;;;;18.40;99.90;;;;;;4936943;29;20277;-77
2023/08/27 11:08:34;;;;;;;;;;;18.50;99.90;;;;;;4937906;29;19930;-78
2023/08/27 11:11:09;;;;;;;;;;;18.60;99.90;;;;;;4936671;29;19962;-79
2023/08/27 11:13:38;;;;;;;;;;;18.60;99.90;;;;;;4937779;29;19926;-78
2023/08/27 11:16:10;;;;;;;;;;;18.80;99.90;;;;;;4936164;29;19923;-79
2023/08/27 11:18:49;;;;;;;;;;;18.90;99.90;;;;;;4936475;29;19930;-80
2023/08/27 11:21:40;;;;;;;;;;;18.80;99.90;;;;;;4936097;29;20349;-78
2023/08/27 11:24:12;;;;;;;;;;;18.60;99.90;;;;;;4937673;29;20289;-77
2023/08/27 11:26:41;;;;;;;;;;;18.50;99.90;;;;;;4936613;29;19923;-79
2023/08/27 11:29:10;;;;;;;;;;;18.30;99.90;;;;;;4936086;29;19927;-78
2023/08/27 11:31:43;;;;;;;;;;;18.20;99.90;;;;;;4935941;29;19931;-78
2023/08/27 11:34:13;;;;;;;;;;;17.80;99.90;;;;;;4935887;29;19926;-78
2023/08/27 11:36:43;;;;;;;;;;;17.50;99.90;;;;;;4935812;29;19930;-79
2023/08/27 11:39:12;;;;;;;;;;;17.20;99.90;;;;;;4936122;29;19931;-79
2023/08/27 11:41:39;;;;;;;;;;;16.90;99.90;;;;;;4936100;29;19930;-80
2023/08/27 11:44:06;;;;;;;;;;;16.70;99.90;;;;;;4935830;29;20013;-81
2023/08/27 11:46:32;;;;;;;;;;;16.30;99.90;;;;;;4935461;29;19923;-79
2023/08/27 11:48:58;;;;;;;;;;;15.90;99.90;;;;;;4935784;29;19927;-80
2023/08/27 11:51:24;;;;;;;;;;;15.50;99.90;;;;;;4935621;29;19922;-79
2023/08/27 11:53:50;;;;;;;;;;;15.20;99.90;;;;;;4935696;29;19934;-79
2023/08/27 11:56:16;;;;;;;;;;;15.10;99.90;;;;;;4935689;29;19969;-79
2023/08/27 11:58:41;;;;;;;;;;;15.00;99.90;;;;;;4935616;29;19923;-80
2023/08/27 12:01:10;;;;;;;;;;;14.90;99.90;;;;;;4936758;29;19926;-78
2023/08/27 12:03:37;;;;;;;;;;;14.80;99.90;;;;;;4935755;29;19931;-78
2023/08/27 12:06:03;;;;;;;;;;;14.80;99.90;;;;;;4936577;29;19937;-78
2023/08/27 12:08:35;;;;;;;;;;;14.80;99.90;;;;;;4936650;29;19926;-80
2023/08/27 12:11:01;;;;;;;;;;;14.80;99.90;;;;;;4935224;29;19938;-78
2023/08/27 12:13:26;;;;;;;;;;;14.90;99.90;;;;;;4936716;29;19960;-77
2023/08/27 12:15:53;;;;;;;;;;;14.90;99.90;;;;;;4936523;29;20018;-78
2023/08/27 12:18:19;;;;;;;;;;;15.00;99.90;;;;;;4935140;29;19929;-77
2023/08/27 12:20:48;;;;;;;;;;;15.10;99.90;;;;;;4935012;29;19923;-78
2023/08/27 12:23:13;;;;;;;;;;;15.10;99.90;;;;;;4935165;29;19932;-79
2023/08/27 12:25:46;;;;;;;;;;;15.10;99.90;;;;;;4935413;29;19923;-78
2023/08/27 12:28:11;;;;;;;;;;;15.10;99.90;;;;;;4935110;29;19992;-78
2023/08/27 12:30:37;;;;;;;;;;;15.20;99.90;;;;;;4935657;29;20013;-78
2023/08/27 12:33:03;;;;;;;;;;;15.10;99.90;;;;;;4935312;29;19926;-79
2023/08/27 12:35:29;;;;;;;;;;;15.00;99.90;;;;;;4935317;29;19923;-77
2023/08/27 12:37:55;;;;;;;;;;;15.10;99.90;;;;;;4935381;29;20054;-79
2023/08/27 12:40:21;;;;;;;;;;;15.10;99.90;;;;;;4934993;29;19930;-77
2023/08/27 12:42:47;;;;;;;;;;;15.00;99.90;;;;;;4935422;29;20007;-77
2023/08/27 12:45:12;;;;;;;;;;;15.00;99.90;;;;;;4935615;29;20470;-79
2023/08/27 12:47:38;;;;;;;;;;;15.00;99.90;;;;;;4935045;29;19970;-81
2023/08/27 12:50:04;;;;;;;;;;;14.90;99.90;;;;;;4936023;29;19978;-78
2023/08/27 12:52:30;;;;;;;;;;;14.90;99.90;;;;;;4936024;29;20013;-79
2023/08/27 12:54:55;;;;;;;;;;;14.90;99.90;;;;;;4936066;29;19930;-79
2023/08/27 12:57:21;;;;;;;;;;;14.80;99.90;;;;;;4934802;29;19929;-79
2023/08/27 12:59:46;;;;;;;;;;;14.90;99.90;;;;;;4938232;29;19989;-80
2023/08/27 13:02:12;;;;;;;;;;;14.90;99.90;;;;;;4940186;29;19922;-80
2023/08/27 13:04:37;;;;;;;;;;;14.90;99.90;;;;;;4939494;29;19923;-80
2023/08/27 13:07:03;;;;;;;;;;;14.90;99.90;;;;;;4938505;29;19923;-78
2023/08/27 13:09:28;;;;;;;;;;;15.00;99.90;;;;;;4940348;29;19922;-79
2023/08/27 13:11:55;;;;;;;;;;;15.10;99.90;;;;;;4939994;29;19927;-80
2023/08/27 13:14:21;;;;;;;;;;;15.20;99.90;;;;;;4938996;29;19990;-80
2023/08/27 13:16:47;;;;;;;;;;;15.30;99.90;;;;;;4939759;29;19927;-79
2023/08/27 13:19:12;;;;;;;;;;;15.40;99.90;;;;;;4940171;29;19922;-80
2023/08/27 13:21:40;;;;;;;;;;;15.50;99.90;;;;;;4938393;29;20411;-77
2023/08/27 13:24:06;;;;;;;;;;;15.60;99.90;;;;;;4939735;29;19945;-81
2023/08/27 13:26:32;;;;;;;;;;;15.70;99.90;;;;;;4940277;29;20074;-80
2023/08/27 13:28:58;;;;;;;;;;;15.80;99.90;;;;;;4938589;29;19923;-80
2023/08/27 13:31:23;;;;;;;;;;;16.00;99.90;;;;;;4938284;29;19929;-81
2023/08/27 13:33:49;;;;;;;;;;;16.10;99.90;;;;;;4938105;29;19933;-80
2023/08/27 13:36:14;;;;;;;;;;;16.30;99.90;;;;;;4938121;29;19977;-80
2023/08/27 13:38:40;;;;;;;;;;;16.50;99.90;;;;;;4938013;29;19923;-80
2023/08/27 13:41:05;;;;;;;;;;;16.60;99.90;;;;;;4937909;29;19923;-80
2023/08/27 13:43:31;;;;;;;;;;;16.80;99.90;;;;;;4939384;29;20001;-77
2023/08/27 13:45:56;;;;;;;;;;;17.00;99.90;;;;;;4937786;29;19927;-79
2023/08/27 13:48:22;;;;;;;;;;;17.20;99.90;;;;;;4937733;29;19974;-79
2023/08/27 13:50:48;;;;;;;;;;;17.40;99.90;;;;;;4937883;29;19922;-78
2023/08/27 13:53:14;;;;;;;;;;;17.40;99.90;;;;;;4937618;29;20277;-79
2023/08/27 13:55:39;;;;;;;;;;;17.30;99.90;;;;;;4937768;29;19926;-78
2023/08/27 13:58:05;;;;;;;;;;;17.20;99.90;;;;;;4937661;29;19922;-78
2023/08/27 14:00:33;;;;;;;;;;;17.30;99.90;;;;;;4937296;29;19923;-78
2023/08/27 14:02:59;;;;;;;;;;;17.50;99.90;;;;;;4939386;29;19934;-78
2023/08/27 14:05:25;;;;;;;;;;;17.60;99.90;;;;;;4937383;29;20297;-77
2023/08/27 14:07:50;;;;;;;;;;;17.80;99.90;;;;;;4937291;29;19923;-79
2023/08/27 14:10:16;;;;;;;;;;;18.00;99.90;;;;;;4937284;29;20337;-77
2023/08/27 14:12:41;;;;;;;;;;;18.10;99.90;;;;;;4937171;29;20481;-79
2023/08/27 14:15:07;;;;;;;;;;;18.20;99.90;;;;;;4938618;29;19926;-79
2023/08/27 14:17:32;;;;;;;;;;;18.30;99.90;;;;;;4937154;29;19923;-78
2023/08/27 14:19:58;;;;;;;;;;;18.20;99.90;;;;;;4937197;29;19974;-78
2023/08/27 14:22:26;;;;;;;;;;;18.20;99.90;;;;;;4937016;29;19977;-77
2023/08/27 14:24:51;;;;;;;;;;;18.20;99.90;;;;;;4937072;29;20044;-78
2023/08/27 14:27:17;;;;;;;;;;;18.30;99.90;;;;;;4938261;29;19923;-78
2023/08/27 14:29:42;;;;;;;;;;;18.30;99.90;;;;;;4937315;29;19974;-78
2023/08/27 14:32:08;;;;;;;;;;;18.40;99.90;;;;;;4937161;29;19929;-76
2023/08/27 14:34:33;;;;;;;;;;;18.60;99.90;;;;;;4938814;29;19942;-78
2023/08/27 14:36:59;;;;;;;;;;;18.60;99.90;;;;;;4936863;29;20005;-78
2023/08/27 14:39:25;;;;;;;;;;;18.80;99.90;;;;;;4936802;29;19969;-76
2023/08/27 14:41:51;;;;;;;;;;;18.70;99.90;;;;;;4936761;29;19923;-77
2023/08/27 14:44:16;;;;;;;;;;;18.80;99.90;;;;;;4936699;29;19947;-75
2023/08/27 14:46:42;;;;;;;;;;;18.90;99.90;;;;;;4936590;29;19945;-79
2023/08/27 14:49:07;;;;;;;;;;;19.00;99.90;;;;;;4936609;29;20266;-78
2023/08/27 14:51:33;;;;;;;;;;;18.80;99.90;;;;;;4952841;29;19929;-78
2023/08/27 14:53:59;;;;;;;;;;;18.60;99.90;;;;;;4936675;29;19931;-78
2023/08/27 14:56:27;;;;;;;;;;;18.50;99.90;;;;;;4936470;29;19923;-79
2023/08/27 14:58:53;;;;;;;;;;;18.30;99.90;;;;;;4936520;29;19929;-77
2023/08/27 15:01:19;;;;;;;;;;;18.10;99.90;;;;;;4936778;29;19927;-77
2023/08/27 15:03:45;;;;;;;;;;;18.00;99.90;;;;;;4936675;29;19923;-78
2023/08/27 15:06:11;;;;;;;;;;;17.70;99.90;;;;;;4937814;29;19958;-77
2023/08/27 15:08:36;;;;;;;;;;;17.60;99.90;;;;;;4936291;29;20292;-77
2023/08/27 15:11:02;;;;;;;;;;;17.50;99.90;;;;;;4936297;29;19929;-77
2023/08/27 15:13:27;;;;;;;;;;;17.40;99.90;;;;;;4936671;29;20021;-77
2023/08/27 15:15:53;;;;;;;;;;;17.30;99.90;;;;;;4936484;29;20376;-78
2023/08/27 15:18:18;;;;;;;;;;;17.20;99.90;;;;;;4936376;29;19923;-78
2023/08/27 15:20:45;;;;;;;;;;;17.20;99.90;;;;;;4935482;29;19922;-78
2023/08/27 15:23:11;;;;;;;;;;;17.10;99.90;;;;;;4936125;29;19923;-77
2023/08/27 15:25:36;;;;;;;;;;;17.10;99.90;;;;;;4937643;29;19934;-78
2023/08/27 15:28:02;;;;;;;;;;;17.10;99.90;;;;;;4937213;29;19922;-79
2023/08/27 15:30:27;;;;;;;;;;;17.10;99.90;;;;;;4936273;29;19922;-79
2023/08/27 15:32:53;;;;;;;;;;;17.00;99.90;;;;;;4937524;29;20384;-79
2023/08/27 15:35:18;;;;;;;;;;;17.00;99.90;;;;;;4935936;29;19923;-78
2023/08/27 15:37:46;;;;;;;;;;;17.00;99.90;;;;;;4935820;29;20005;-78
2023/08/27 15:40:12;;;;;;;;;;;17.00;99.90;;;;;;4937352;29;19922;-79
2023/08/27 15:42:37;;;;;;;;;;;17.00;99.90;;;;;;4935729;29;19930;-75
2023/08/27 15:45:03;;;;;;;;;;;16.90;99.90;;;;;;4951770;29;19936;-78
2023/08/27 15:47:30;;;;;;;;;;;16.80;99.90;;;;;;4936062;29;19929;-79
2023/08/27 15:49:56;;;;;;;;;;;16.70;99.90;;;;;;4935653;29;19954;-79
2023/08/27 15:52:22;;;;;;;;;;;16.70;99.90;;;;;;4935589;29;19973;-79
2023/08/27 15:54:48;;;;;;;;;;;16.60;99.90;;;;;;4937079;29;19926;-80
2023/08/27 15:57:13;;;;;;;;;;;16.50;99.90;;;;;;4937018;29;19973;-79
2023/08/27 15:59:39;;;;;;;;;;;16.30;99.90;;;;;;4935445;29;19930;-79
2023/08/27 16:02:05;;;;;;;;;;;16.10;99.90;;;;;;4936760;29;19929;-78
2023/08/27 16:04:30;;;;;;;;;;;15.90;99.90;;;;;;4935433;29;19923;-77
2023/08/27 16:06:56;;;;;;;;;;;15.60;99.90;;;;;;4935693;29;19929;-77
2023/08/27 16:09:21;;;;;;;;;;;15.40;99.90;;;;;;4935380;29;19945;-77
2023/08/27 16:11:47;;;;;;;;;;;15.40;99.90;;;;;;4935660;29;19923;-77
2023/08/27 16:14:12;;;;;;;;;;;15.50;99.90;;;;;;4935366;29;20384;-79
2023/08/27 16:16:38;;;;;;;;;;;15.70;99.90;;;;;;4935387;29;19966;-80
2023/08/27 16:19:03;;;;;;;;;;;15.80;99.90;;;;;;4935283;29;20018;-77
2023/08/27 16:21:29;;;;;;;;;;;15.90;99.90;;;;;;4935550;29;19974;-79
2023/08/27 16:23:55;;;;;;;;;;;16.00;99.90;;;;;;4935269;29;20377;-78
2023/08/27 16:26:21;;;;;;;;;;;15.90;99.90;;;;;;4935390;29;19922;-80
2023/08/27 16:28:47;;;;;;;;;;;15.90;99.90;;;;;;4935212;29;19926;-79
2023/08/27 16:31:16;;;;;;;;;;;15.80;99.90;;;;;;4935123;29;20274;-79
2023/08/27 16:33:41;;;;;;;;;;;15.80;99.90;;;;;;4935060;29;19934;-79
2023/08/27 16:36:07;;;;;;;;;;;15.80;99.90;;;;;;4935202;29;19922;-79
2023/08/27 16:38:32;;;;;;;;;;;15.80;99.90;;;;;;4935123;29;19923;-78
2023/08/27 16:40:58;;;;;;;;;;;15.80;99.90;;;;;;4935599;29;19950;-78
2023/08/27 16:43:23;;;;;;;;;;;15.80;99.90;;;;;;4935472;29;20281;-78
2023/08/27 16:45:51;;;;;;;;;;;15.80;99.90;;;;;;4936183;29;19923;-79
2023/08/27 16:48:17;;;;;;;;;;;15.80;99.90;;;;;;4935006;29;19927;-78
2023/08/27 16:50:42;;;;;;;;;;;15.80;99.90;;;;;;4934839;29;19929;-78
2023/08/27 16:53:08;;;;;;;;;;;15.90;99.90;;;;;;4936488;29;19923;-79
2023/08/27 16:55:33;;;;;;;;;;;16.00;99.90;;;;;;4935006;29;19923;-79
2023/08/27 16:57:59;;;;;;;;;;;16.00;99.90;;;;;;4934932;29;19974;-78
2023/08/27 17:00:24;;;;;;;;;;;16.00;99.90;;;;;;4935985;29;19929;-78
2023/08/27 17:02:53;;;;;;;;;;;16.00;99.90;;;;;;4934919;29;19926;-79
2023/08/27 17:05:19;;;;;;;;;;;15.90;99.90;;;;;;4935177;29;19923;-79
2023/08/27 17:07:44;;;;;;;;;;;15.90;99.90;;;;;;4934947;29;19929;-78
2023/08/27 17:10:10;;;;;;;;;;;15.90;99.90;;;;;;4935985;29;19985;-78
2023/08/27 17:12:35;;;;;;;;;;;15.90;99.90;;;;;;4931017;29;19923;-77
2023/08/27 17:15:01;;;;;;;;;;;16.00;99.90;;;;;;4927916;29;19978;-83
2023/08/27 17:17:27;;;;;;;;;;;15.90;99.90;;;;;;4932493;29;20022;-75
2023/08/27 17:19:55;;;;;;;;;;;15.90;99.90;;;;;;4935133;29;19922;-77
2023/08/27 17:22:22;;;;;;;;;;;15.90;99.90;;;;;;4934281;29;20351;-77
2023/08/27 17:24:48;;;;;;;;;;;15.90;99.90;;;;;;4935087;29;20005;-76
2023/08/27 17:27:13;;;;;;;;;;;15.80;99.90;;;;;;4934632;29;20373;-77
2023/08/27 17:29:39;;;;;;;;;;;15.80;99.90;;;;;;4935935;29;19923;-78
2023/08/27 17:32:08;;;;;;;;;;;15.70;99.90;;;;;;4935051;29;19986;-79
2023/08/27 17:34:34;;;;;;;;;;;15.60;99.90;;;;;;4934796;29;19934;-76
2023/08/27 17:37:00;;;;;;;;;;;15.60;99.90;;;;;;4934462;29;19929;-78
2023/08/27 17:39:25;;;;;;;;;;;15.50;99.90;;;;;;4935187;29;20268;-79
2023/08/27 17:41:51;;;;;;;;;;;15.50;99.90;;;;;;4935291;29;20017;-77
2023/08/27 17:44:17;;;;;;;;;;;15.40;99.90;;;;;;4935453;29;20428;-77
2023/08/27 17:46:43;;;;;;;;;;;15.40;99.90;;;;;;4937865;29;20300;-78
2023/08/27 17:49:09;;;;;;;;;;;15.30;99.90;;;;;;4939333;29;20292;-77
2023/08/27 17:51:34;;;;;;;;;;;15.30;99.90;;;;;;4937766;29;19929;-78
2023/08/27 17:54:00;;;;;;;;;;;15.30;99.90;;;;;;4937834;29;19930;-77
2023/08/27 17:56:25;;;;;;;;;;;15.30;99.90;;;;;;4938056;29;19930;-79
2023/08/27 17:58:52;;;;;;;;;;;15.20;99.90;;;;;;4922689;29;19927;-78
2023/08/27 18:01:17;;;;;;;;;;;15.20;99.90;;;;;;4922257;29;19930;-78
2023/08/27 18:03:43;;;;;;;;;;;15.20;99.90;;;;;;4937747;29;20305;-78
2023/08/27 18:06:08;;;;;;;;;;;15.10;99.90;;;;;;4937555;29;19989;-81
2023/08/27 18:08:34;;;;;;;;;;;15.10;99.90;;;;;;4938647;29;19923;-79
2023/08/27 18:11:01;;;;;;;;;;;15.10;99.90;;;;;;4937313;29;19923;-78
2023/08/27 18:13:27;;;;;;;;;;;15.10;99.90;;;;;;4937283;29;20029;-77